Time;durP1;ratioP1;P1;durP2;ratioP2;P2;SDS_P1;SDS_P2;PMS_P1;PMS_P2;Temp;Humidity;BMP_temperature;BMP_pressure;BME280_temperature;BME280_humidity;BME280_pressure;Samples;Min_cycle;Max_cycle;Signal;HPM_P1;HPM_P2
2023/07/26 00:01:34;;;;;;;4.82;2.42;;;14.10;99.90;;;;;;5029081;28;20030;-53
2023/07/26 00:04:00;;;;;;;6.85;2.75;;;14.10;99.90;;;;;;5027859;28;20056;-49
2023/07/26 00:06:26;;;;;;;8.18;2.80;;;14.10;99.90;;;;;;5028854;28;20029;-52
2023/07/26 00:08:52;;;;;;;2.47;2.25;;;14.10;99.90;;;;;;5027862;28;20168;-49
2023/07/26 00:11:18;;;;;;;;;;;14.10;99.90;;;;;;5029012;28;20132;-54
2023/07/26 00:13:43;;;;;;;2.35;2.08;;;14.10;99.90;;;;;;5025342;28;20067;-48
2023/07/26 00:16:09;;;;;;;2.28;2.08;;;14.10;99.90;;;;;;5028728;28;20068;-52
2023/07/26 00:18:35;;;;;;;4.55;1.70;;;14.10;99.90;;;;;;5026239;28;20041;-52
2023/07/26 00:21:01;;;;;;;3.17;1.85;;;14.10;99.90;;;;;;5029114;28;20516;-49
2023/07/26 00:23:26;;;;;;;1.85;1.50;;;14.10;99.90;;;;;;5028434;28;20040;-51
2023/07/26 00:25:52;;;;;;;4.10;1.70;;;14.20;99.90;;;;;;5028364;28;20064;-49
2023/07/26 00:28:18;;;;;;;4.10;1.98;;;14.10;99.90;;;;;;5022451;28;20527;-49
2023/07/26 00:30:43;;;;;;;2.92;1.70;;;14.20;99.90;;;;;;5028457;28;20107;-54
2023/07/26 00:33:09;;;;;;;4.50;1.58;;;14.20;99.90;;;;;;5027721;28;20044;-52
2023/07/26 00:35:40;;;;;;;8.38;2.33;;;14.20;99.90;;;;;;5028869;28;20036;-48
2023/07/26 00:38:06;;;;;;;5.25;2.03;;;14.20;99.90;;;;;;5027542;28;20037;-52
2023/07/26 00:40:32;;;;;;;2.95;1.85;;;14.20;99.90;;;;;;5028579;28;20044;-53
2023/07/26 00:42:58;;;;;;;4.63;1.95;;;14.20;99.90;;;;;;5028117;28;20051;-50
2023/07/26 00:45:24;;;;;;;4.35;2.13;;;14.20;99.90;;;;;;5028410;28;20029;-53
2023/07/26 00:47:50;;;;;;;3.28;2.08;;;14.20;99.90;;;;;;5027642;28;20048;-49
2023/07/26 00:50:16;;;;;;;4.65;2.40;;;14.20;99.90;;;;;;5027306;28;20506;-48
2023/07/26 00:52:41;;;;;;;3.25;2.10;;;14.20;99.90;;;;;;5028118;28;20042;-48
2023/07/26 00:55:08;;;;;;;4.55;2.58;;;14.20;99.90;;;;;;5028630;28;20052;-48
2023/07/26 00:57:34;;;;;;;4.30;2.55;;;14.20;99.90;;;;;;5026250;28;20045;-54
2023/07/26 00:59:59;;;;;;;3.60;2.13;;;14.20;99.90;;;;;;5027809;28;20041;-50
2023/07/26 01:02:25;;;;;;;2.47;2.28;;;14.20;99.90;;;;;;5028288;28;20298;-50
2023/07/26 01:04:51;;;;;;;3.47;2.65;;;14.20;99.90;;;;;;5028057;28;20029;-51
2023/07/26 01:07:23;;;;;;;5.43;2.65;;;14.20;99.90;;;;;;5024201;28;20045;-49
2023/07/26 01:10:07;;;;;;;3.20;2.63;;;14.30;99.90;;;;;;5028246;28;20465;-51
2023/07/26 01:12:45;;;;;;;4.45;2.88;;;14.20;99.90;;;;;;5027448;28;20433;-51
2023/07/26 01:15:14;;;;;;;3.70;2.28;;;14.30;99.90;;;;;;5028187;28;20117;-51
2023/07/26 01:17:40;;;;;;;4.63;3.05;;;14.30;99.90;;;;;;5027273;28;20041;-49
2023/07/26 01:20:06;;;;;;;3.50;2.40;;;14.30;99.90;;;;;;5027832;28;20056;-51
2023/07/26 01:22:31;;;;;;;7.95;2.60;;;14.20;99.90;;;;;;5027865;28;20453;-55
2023/07/26 01:24:57;;;;;;;4.63;2.60;;;14.20;99.90;;;;;;5026948;28;20046;-49
2023/07/26 01:27:23;;;;;;;2.33;2.03;;;14.20;99.90;;;;;;5026896;28;20365;-49
2023/07/26 01:29:53;;;;;;;2.80;2.60;;;14.20;99.90;;;;;;5027864;28;20143;-49
2023/07/26 01:32:22;;;;;;;7.57;3.03;;;14.20;99.90;;;;;;5028455;28;20038;-50
2023/07/26 01:34:47;;;;;;;3.28;2.35;;;14.30;99.90;;;;;;5025334;28;20120;-49
2023/07/26 01:37:14;;;;;;;5.07;2.97;;;14.30;99.90;;;;;;5027197;28;20112;-49
2023/07/26 01:39:40;;;;;;;3.67;2.88;;;14.20;99.90;;;;;;5030984;28;20065;-49
2023/07/26 01:42:06;;;;;;;8.02;2.83;;;14.20;99.90;;;;;;5032117;28;20467;-49
2023/07/26 01:44:36;;;;;;;3.50;2.35;;;14.20;99.90;;;;;;5030996;28;20495;-48
2023/07/26 01:47:02;;;;;;;3.55;2.35;;;14.20;99.90;;;;;;5025815;28;20037;-48
2023/07/26 01:49:27;;;;;;;5.00;2.72;;;14.20;99.90;;;;;;5031347;28;20041;-49
2023/07/26 01:51:53;;;;;;;7.57;2.60;;;14.20;99.90;;;;;;5032223;28;20415;-52
2023/07/26 01:54:19;;;;;;;7.95;3.20;;;14.20;99.90;;;;;;5030671;28;20055;-48
2023/07/26 01:56:45;;;;;;;3.40;3.05;;;14.20;99.90;;;;;;5030894;28;20064;-50
2023/07/26 01:59:11;;;;;;;4.78;2.90;;;14.10;99.90;;;;;;5030010;28;20052;-49
2023/07/26 02:01:37;;;;;;;2.78;2.47;;;14.10;99.90;;;;;;5031294;28;20029;-55
2023/07/26 02:04:02;;;;;;;4.43;2.13;;;14.10;99.90;;;;;;5031074;28;20041;-48
2023/07/26 02:06:28;;;;;;;6.22;2.72;;;14.20;99.90;;;;;;5031085;28;20116;-49
2023/07/26 02:08:54;;;;;;;5.00;2.92;;;14.20;99.90;;;;;;5030773;28;20037;-48
2023/07/26 02:11:19;;;;;;;5.18;2.38;;;14.10;99.90;;;;;;5031418;28;20041;-49
2023/07/26 02:13:45;;;;;;;3.15;2.15;;;14.10;99.90;;;;;;5030672;28;20042;-52
2023/07/26 02:16:10;;;;;;;5.63;2.17;;;14.10;99.90;;;;;;5031209;28;20045;-49
2023/07/26 02:18:36;;;;;;;4.05;2.17;;;14.10;99.90;;;;;;5030721;28;20409;-49
2023/07/26 02:21:02;;;;;;;5.38;2.10;;;14.10;99.90;;;;;;5031142;28;20483;-49
2023/07/26 02:23:27;;;;;;;4.25;1.75;;;14.10;99.90;;;;;;5029936;28;20144;-50
2023/07/26 02:25:53;;;;;;;6.43;2.00;;;14.00;99.90;;;;;;5031369;28;20061;-51
2023/07/26 02:28:18;;;;;;;4.10;2.38;;;14.00;99.90;;;;;;5029660;28;20629;-48
2023/07/26 02:30:44;;;;;;;4.85;1.77;;;14.00;99.90;;;;;;5031017;28;20112;-49
2023/07/26 02:33:10;;;;;;;2.55;2.05;;;13.90;99.90;;;;;;5029855;28;20041;-50
2023/07/26 02:35:35;;;;;;;4.15;2.17;;;13.80;99.90;;;;;;5029830;28;20033;-54
2023/07/26 02:38:01;;;;;;;3.35;1.83;;;13.80;99.90;;;;;;5029439;28;20435;-51
2023/07/26 02:40:26;;;;;;;4.75;2.22;;;13.70;99.90;;;;;;5030230;28;20475;-49
2023/07/26 02:42:52;;;;;;;3.60;2.30;;;13.70;99.90;;;;;;5030127;28;20042;-49
2023/07/26 02:45:18;;;;;;;2.75;1.58;;;13.60;99.90;;;;;;5030334;28;20033;-52
2023/07/26 02:47:43;;;;;;;3.40;2.83;;;13.60;99.90;;;;;;5029860;28;20119;-50
2023/07/26 02:50:09;;;;;;;2.50;2.28;;;13.60;99.90;;;;;;5030467;28;20037;-49
2023/07/26 02:52:35;;;;;;;2.85;2.47;;;13.60;99.90;;;;;;5025195;28;20034;-49
2023/07/26 02:55:00;;;;;;;3.17;2.03;;;13.50;99.90;;;;;;5030085;28;20053;-52
2023/07/26 02:57:26;;;;;;;4.03;2.20;;;13.50;99.90;;;;;;5029746;28;20038;-49
2023/07/26 02:59:52;;;;;;;2.72;2.17;;;13.50;99.90;;;;;;5030220;28;20056;-49
2023/07/26 03:02:17;;;;;;;5.72;2.97;;;13.50;99.90;;;;;;5030223;28;20087;-51
2023/07/26 03:04:43;;;;;;;3.33;2.22;;;13.40;99.90;;;;;;5027197;28;20034;-52
2023/07/26 03:07:09;;;;;;;4.15;2.17;;;13.40;99.90;;;;;;5028407;28;20077;-49
2023/07/26 03:09:34;;;;;;;2.97;2.10;;;13.40;99.90;;;;;;5030506;28;20040;-48
2023/07/26 03:12:00;;;;;;;2.80;2.05;;;13.30;99.90;;;;;;5030124;28;20494;-50
2023/07/26 03:14:25;;;;;;;3.22;2.50;;;13.30;99.90;;;;;;5029747;28;20103;-54
2023/07/26 03:16:51;;;;;;;5.57;2.22;;;13.20;99.90;;;;;;5026266;28;20128;-48
2023/07/26 03:19:17;;;;;;;6.03;1.77;;;13.20;99.90;;;;;;5029903;28;20508;-48
2023/07/26 03:21:42;;;;;;;3.53;2.35;;;13.20;99.90;;;;;;5029739;28;20037;-48
2023/07/26 03:24:08;;;;;;;5.18;2.20;;;13.20;99.90;;;;;;5030049;28;20037;-53
2023/07/26 03:26:34;;;;;;;5.43;3.20;;;13.20;99.90;;;;;;5029298;28;20034;-48
2023/07/26 03:28:59;;;;;;;2.13;2.03;;;13.20;99.90;;;;;;5029406;28;20406;-48
2023/07/26 03:31:25;;;;;;;2.80;2.60;;;13.20;99.90;;;;;;5029586;28;20041;-49
2023/07/26 03:33:50;;;;;;;5.28;2.53;;;13.10;99.90;;;;;;5029324;28;20403;-52
2023/07/26 03:36:16;;;;;;;2.42;2.20;;;13.10;99.90;;;;;;5029318;28;20044;-52
2023/07/26 03:38:42;;;;;;;2.85;2.58;;;13.00;99.90;;;;;;5028586;28;20069;-49
2023/07/26 03:41:07;;;;;;;2.58;2.22;;;13.00;99.90;;;;;;5029673;28;20037;-49
2023/07/26 03:43:33;;;;;;;4.22;2.83;;;12.80;99.90;;;;;;5028844;28;20030;-51
2023/07/26 03:45:59;;;;;;;3.10;2.40;;;12.80;99.90;;;;;;5029235;28;20082;-49
2023/07/26 03:48:24;;;;;;;5.10;2.75;;;12.80;99.90;;;;;;5028584;28;20037;-48
2023/07/26 03:50:50;;;;;;;3.38;2.67;;;12.80;99.90;;;;;;5029449;28;20037;-52
2023/07/26 03:53:16;;;;;;;1.98;1.83;;;12.80;99.90;;;;;;5026977;28;20044;-52
2023/07/26 03:55:41;;;;;;;3.20;2.67;;;12.70;99.90;;;;;;5023941;28;20041;-50
2023/07/26 03:58:07;;;;;;;2.33;2.17;;;12.80;99.90;;;;;;5028523;28;20410;-48
2023/07/26 04:00:32;;;;;;;3.38;2.42;;;12.60;99.90;;;;;;5028196;28;20510;-52
2023/07/26 04:02:58;;;;;;;2.60;2.25;;;12.60;99.90;;;;;;5029339;28;20037;-51
2023/07/26 04:05:23;;;;;;;10.35;3.17;;;12.60;99.90;;;;;;5028890;28;20201;-49
2023/07/26 04:07:49;;;;;;;4.45;2.75;;;12.60;99.90;;;;;;5028210;28;20040;-50
2023/07/26 04:10:15;;;;;;;4.63;3.10;;;12.60;99.90;;;;;;5025280;28;20075;-51
2023/07/26 04:12:40;;;;;;;3.40;3.10;;;12.60;99.90;;;;;;5029048;28;20044;-49
2023/07/26 04:15:07;;;;;;;6.40;3.35;;;12.60;99.90;;;;;;5028915;28;20044;-49
2023/07/26 04:17:32;;;;;;;4.47;3.55;;;12.60;99.90;;;;;;5028105;28;20037;-49
2023/07/26 04:19:59;;;;;;;4.25;3.33;;;12.60;99.90;;;;;;5029018;28;20042;-51
2023/07/26 04:22:25;;;;;;;2.90;2.53;;;12.60;99.90;;;;;;5028435;28;20383;-49
2023/07/26 04:24:50;;;;;;;7.82;3.35;;;12.60;99.90;;;;;;5029284;28;20044;-51
2023/07/26 04:27:16;;;;;;;8.70;3.70;;;12.50;99.90;;;;;;5027801;28;20041;-49
2023/07/26 04:29:44;;;;;;;5.30;2.92;;;12.50;99.90;;;;;;5028922;28;20039;-52
2023/07/26 04:32:10;;;;;;;11.23;3.38;;;12.50;99.90;;;;;;5028976;28;20044;-49
2023/07/26 04:34:36;;;;;;;3.72;3.03;;;12.50;99.90;;;;;;5026664;28;20053;-52
2023/07/26 04:37:01;;;;;;;3.30;3.00;;;12.60;99.90;;;;;;5028085;28;20044;-49
2023/07/26 04:39:27;;;;;;;4.68;2.80;;;12.60;99.90;;;;;;5028237;28;20037;-51
2023/07/26 04:41:53;;;;;;;3.80;3.22;;;12.60;99.90;;;;;;5029153;28;20041;-49
2023/07/26 04:44:19;;;;;;;4.80;3.25;;;12.50;99.90;;;;;;5027501;28;20043;-48
2023/07/26 04:46:44;;;;;;;4.80;3.75;;;12.50;99.90;;;;;;5027603;28;20045;-49
2023/07/26 04:49:10;;;;;;;4.38;3.60;;;12.50;99.90;;;;;;5027797;28;20265;-49
2023/07/26 04:51:36;;;;;;;5.53;3.90;;;12.60;99.90;;;;;;5028793;28;20117;-49
2023/07/26 04:54:01;;;;;;;4.85;4.15;;;12.60;99.90;;;;;;5027840;28;20072;-49
2023/07/26 04:56:27;;;;;;;5.97;3.70;;;12.60;99.90;;;;;;5028014;28;21827;-52
2023/07/26 04:58:53;;;;;;;4.10;3.78;;;12.60;99.90;;;;;;5022458;28;20337;-48
2023/07/26 05:01:19;;;;;;;5.55;3.38;;;12.60;99.90;;;;;;5028326;28;20609;-48
2023/07/26 05:03:45;;;;;;;6.40;3.08;;;12.70;99.90;;;;;;5027631;28;20044;-49
2023/07/26 05:06:11;;;;;;;6.32;4.05;;;12.70;99.90;;;;;;5028720;28;20087;-49
2023/07/26 05:08:37;;;;;;;4.05;3.65;;;12.70;99.90;;;;;;5027758;28;20037;-49
2023/07/26 05:11:03;;;;;;;5.80;4.25;;;12.70;99.90;;;;;;5028593;28;20037;-48
2023/07/26 05:13:29;;;;;;;4.35;3.95;;;12.70;99.90;;;;;;5031304;28;20044;-51
2023/07/26 05:15:54;;;;;;;6.28;4.32;;;12.80;99.90;;;;;;5031813;28;20034;-50
2023/07/26 05:18:20;;;;;;;8.38;4.85;;;12.70;99.90;;;;;;5030984;28;20030;-55
2023/07/26 05:20:50;;;;;;;4.28;3.97;;;12.80;99.90;;;;;;5032348;28;20072;-50
2023/07/26 05:23:16;;;;;;;5.80;4.80;;;12.90;99.90;;;;;;5032052;28;20052;-48
2023/07/26 05:25:42;;;;;;;6.03;5.00;;;12.90;99.90;;;;;;5032391;28;20041;-48
2023/07/26 05:28:07;;;;;;;7.30;4.03;;;12.90;99.90;;;;;;5030982;28;20040;-49
2023/07/26 05:30:40;;;;;;;7.57;4.68;;;13.00;99.90;;;;;;5031556;28;20041;-51
2023/07/26 05:33:06;;;;;;;5.38;3.90;;;13.00;99.90;;;;;;5031791;28;20316;-48
2023/07/26 05:35:32;;;;;;;7.30;5.30;;;13.10;99.90;;;;;;5031720;28;20033;-51
2023/07/26 05:37:58;;;;;;;7.93;4.65;;;13.20;99.90;;;;;;5031108;28;20036;-52
2023/07/26 05:40:24;;;;;;;7.18;4.90;;;13.30;99.90;;;;;;5031956;28;20052;-49
2023/07/26 05:42:50;;;;;;;6.05;4.95;;;13.30;99.90;;;;;;5030998;28;20364;-51
2023/07/26 05:45:15;;;;;;;5.57;5.05;;;13.40;99.90;;;;;;5031439;28;20033;-49
2023/07/26 05:47:43;;;;;;;8.73;4.72;;;13.50;99.90;;;;;;5030975;28;20041;-51
2023/07/26 05:50:10;;;;;;;6.22;4.43;;;13.60;99.90;;;;;;5028911;28;20053;-51
2023/07/26 05:52:37;;;;;;;5.57;4.55;;;13.60;99.90;;;;;;5029676;28;20080;-54
2023/07/26 05:55:03;;;;;;;5.15;4.10;;;13.70;99.90;;;;;;5031785;28;20040;-51
2023/07/26 05:57:29;;;;;;;5.32;4.50;;;13.80;99.90;;;;;;5031222;28;20029;-50
2023/07/26 05:59:55;;;;;;;6.05;4.50;;;13.90;99.90;;;;;;5031308;28;20647;-54
2023/07/26 06:02:20;;;;;;;4.97;4.28;;;14.00;99.90;;;;;;5030531;28;20040;-53
2023/07/26 06:04:46;;;;;;;5.70;4.28;;;14.10;99.90;;;;;;5030713;28;20190;-49
2023/07/26 06:07:13;;;;;;;5.65;4.35;;;14.20;99.90;;;;;;5030030;28;20037;-49
2023/07/26 06:09:38;;;;;;;3.45;3.13;;;14.30;99.90;;;;;;5031109;28;20041;-48
2023/07/26 06:12:05;;;;;;;6.35;3.90;;;14.40;99.90;;;;;;5013450;28;20398;-51
2023/07/26 06:14:31;;;;;;;8.02;4.95;;;14.40;99.90;;;;;;5030263;28;20041;-51
2023/07/26 06:16:57;;;;;;;;;;;14.40;99.90;;;;;;5030785;28;20051;-48
2023/07/26 06:19:23;;;;;;;6.78;4.22;;;14.50;99.90;;;;;;5030348;28;19917;-49
2023/07/26 06:21:48;;;;;;;6.53;4.20;;;14.60;99.90;;;;;;5031681;28;20112;-52
2023/07/26 06:24:14;;;;;;;4.88;3.50;;;14.60;99.90;;;;;;5029713;28;20108;-50
2023/07/26 06:26:40;;;;;;;6.90;3.58;;;14.70;99.90;;;;;;5029901;28;20033;-52
2023/07/26 06:29:05;;;;;;;7.35;4.13;;;14.70;99.90;;;;;;5031063;28;20038;-51
2023/07/26 06:31:31;;;;;;;6.50;3.50;;;14.70;99.90;;;;;;5030295;28;20044;-52
2023/07/26 06:33:56;;;;;;;5.50;3.80;;;14.80;99.90;;;;;;5020223;28;20045;-49
2023/07/26 06:36:22;;;;;;;5.68;4.18;;;14.80;99.90;;;;;;5026633;28;20041;-56
2023/07/26 06:38:48;;;;;;;7.97;4.15;;;14.80;99.90;;;;;;5024083;28;20092;-49
2023/07/26 06:41:13;;;;;;;8.98;4.80;;;14.90;99.90;;;;;;5021839;28;20033;-49
2023/07/26 06:43:39;;;;;;;6.45;4.28;;;14.90;99.90;;;;;;5028794;28;20041;-49
2023/07/26 06:46:04;;;;;;;4.57;3.97;;;14.90;99.90;;;;;;5028417;28;20116;-52
2023/07/26 06:48:30;;;;;;;3.47;3.17;;;14.90;99.90;;;;;;5027537;28;20112;-50
2023/07/26 06:50:56;;;;;;;5.25;3.50;;;15.00;99.90;;;;;;5022723;28;20510;-49
2023/07/26 06:53:21;;;;;;;3.70;3.35;;;15.00;99.90;;;;;;5028846;28;20056;-54
2023/07/26 06:55:47;;;;;;;13.77;4.25;;;15.00;99.90;;;;;;5029818;28;20087;-49
2023/07/26 06:58:12;;;;;;;5.45;3.38;;;15.00;99.90;;;;;;5029605;28;20029;-49
2023/07/26 07:00:38;;;;;;;6.05;3.58;;;15.00;99.90;;;;;;5030262;28;20502;-49
2023/07/26 07:03:04;;;;;;;4.50;4.03;;;15.10;99.90;;;;;;5030284;28;20041;-50
2023/07/26 07:05:33;;;;;;;5.85;3.67;;;15.10;99.90;;;;;;5030483;28;20036;-50
2023/07/26 07:07:59;;;;;;;5.60;4.55;;;15.10;99.90;;;;;;5025265;28;20056;-51
2023/07/26 07:10:24;;;;;;;4.72;4.38;;;15.10;99.90;;;;;;5029566;28;20053;-48
2023/07/26 07:12:50;;;;;;;4.70;4.18;;;15.10;99.90;;;;;;5028889;28;20510;-52
2023/07/26 07:15:16;;;;;;;6.32;3.97;;;15.10;99.90;;;;;;5029685;28;20335;-51
2023/07/26 07:17:42;;;;;;;5.18;3.25;;;15.20;99.90;;;;;;5028934;28;20124;-51
2023/07/26 07:20:08;;;;;;;5.60;3.38;;;15.20;99.90;;;;;;5021682;28;20547;-51
2023/07/26 07:22:34;;;;;;;5.70;3.63;;;15.20;99.90;;;;;;5026840;28;20697;-49
2023/07/26 07:25:00;;;;;;;5.68;3.65;;;15.30;99.90;;;;;;5025650;28;20033;-52
2023/07/26 07:27:26;;;;;;;9.05;3.50;;;15.30;99.90;;;;;;5028479;28;20053;-51
2023/07/26 07:29:52;;;;;;;5.30;2.67;;;15.30;99.90;;;;;;5026399;28;20053;-52
2023/07/26 07:32:18;;;;;;;3.55;2.00;;;15.30;99.90;;;;;;5020196;28;20411;-49
2023/07/26 07:34:45;;;;;;;3.08;2.80;;;15.30;99.90;;;;;;5027828;28;20052;-49
2023/07/26 07:37:11;;;;;;;6.03;2.83;;;15.30;99.90;;;;;;5028463;28;20471;-49
2023/07/26 07:39:37;;;;;;;7.32;3.63;;;15.30;99.90;;;;;;5028793;28;20045;-49
2023/07/26 07:42:03;;;;;;;3.22;2.95;;;15.30;99.90;;;;;;5024905;28;20029;-54
2023/07/26 07:44:29;;;;;;;4.70;3.20;;;15.20;99.90;;;;;;5028924;28;20056;-50
2023/07/26 07:46:54;;;;;;;4.70;3.20;;;15.20;99.90;;;;;;5026695;28;20034;-50
2023/07/26 07:49:20;;;;;;;8.48;4.00;;;15.20;99.90;;;;;;5027030;28;20040;-55
2023/07/26 07:51:46;;;;;;;8.50;4.10;;;15.20;99.90;;;;;;5016479;28;20488;-50
2023/07/26 07:54:12;;;;;;;4.68;3.08;;;15.20;99.90;;;;;;5015615;28;20033;-50
2023/07/26 07:56:38;;;;;;;3.35;3.03;;;15.20;99.90;;;;;;5025727;28;20138;-51
2023/07/26 07:59:03;;;;;;;;;;;15.20;99.90;;;;;;5023364;28;20030;-52
2023/07/26 08:01:30;;;;;;;5.82;3.72;;;15.10;99.90;;;;;;5021993;28;19994;-53
2023/07/26 08:03:58;;;;;;;3.58;2.60;;;15.10;99.90;;;;;;5024400;28;20041;-50
2023/07/26 08:06:24;;;;;;;7.80;3.20;;;15.10;99.90;;;;;;5018317;28;20494;-51
2023/07/26 08:08:50;;;;;;;4.65;3.42;;;15.10;99.90;;;;;;5027887;28;20033;-54
2023/07/26 08:11:15;;;;;;;5.32;4.85;;;15.00;99.90;;;;;;5023355;28;20064;-49
2023/07/26 08:13:42;;;;;;;4.43;4.03;;;15.00;99.90;;;;;;5022816;28;20407;-49
2023/07/26 08:16:08;;;;;;;5.10;4.05;;;15.00;99.90;;;;;;5028110;28;20047;-54
2023/07/26 08:18:33;;;;;;;5.10;4.60;;;15.00;99.90;;;;;;5026828;28;21154;-54
2023/07/26 08:20:59;;;;;;;5.03;4.10;;;14.90;99.90;;;;;;5027103;28;20046;-52
2023/07/26 08:23:26;;;;;;;4.53;4.10;;;14.90;99.90;;;;;;5027214;28;20029;-50
2023/07/26 08:25:51;;;;;;;4.70;4.30;;;14.80;99.90;;;;;;5030225;28;20041;-48
2023/07/26 08:28:17;;;;;;;5.07;4.68;;;14.80;99.90;;;;;;5015057;28;20053;-48
2023/07/26 08:30:43;;;;;;;3.40;3.10;;;14.80;99.90;;;;;;5030170;28;20037;-55
2023/07/26 08:33:08;;;;;;;3.22;2.80;;;14.90;99.90;;;;;;5029452;28;20037;-51
2023/07/26 08:35:34;;;;;;;2.70;2.30;;;14.90;99.90;;;;;;5036428;28;20041;-49
2023/07/26 08:38:00;;;;;;;5.72;3.28;;;15.00;99.90;;;;;;5027389;28;20433;-48
2023/07/26 08:40:25;;;;;;;3.75;1.98;;;15.00;99.90;;;;;;5034874;28;20043;-51
2023/07/26 08:42:51;;;;;;;1.85;1.58;;;15.10;99.90;;;;;;5030093;28;20037;-54
2023/07/26 08:45:18;;;;;;;3.25;0.65;;;15.30;99.90;;;;;;5030617;28;20056;-53
2023/07/26 08:47:44;;;;;;;0.77;0.50;;;15.30;99.90;;;;;;5028171;28;20569;-52
2023/07/26 08:50:10;;;;;;;0.70;0.50;;;15.30;99.90;;;;;;5031524;28;20040;-50
2023/07/26 08:52:36;;;;;;;1.80;0.75;;;15.40;99.90;;;;;;5033531;28;20045;-55
2023/07/26 08:55:02;;;;;;;1.60;0.93;;;15.50;99.90;;;;;;5030230;28;20046;-52
2023/07/26 08:57:28;;;;;;;0.98;0.55;;;15.70;99.90;;;;;;5033691;28;20171;-52
2023/07/26 08:59:54;;;;;;;2.05;0.70;;;15.90;99.90;;;;;;5030889;28;20034;-49
2023/07/26 09:02:21;;;;;;;0.80;0.50;;;16.10;99.90;;;;;;5032283;28;20436;-51
2023/07/26 09:04:47;;;;;;;1.13;0.60;;;16.10;99.90;;;;;;5030335;28;20051;-56
2023/07/26 09:07:14;;;;;;;1.40;0.80;;;16.20;99.90;;;;;;5031354;28;20033;-50
2023/07/26 09:09:40;;;;;;;1.23;0.68;;;16.30;99.90;;;;;;5028148;28;20111;-51
2023/07/26 09:12:06;;;;;;;;;;;16.40;99.90;;;;;;5024894;28;20061;-54
2023/07/26 09:14:33;;;;;;;1.63;0.90;;;16.50;99.90;;;;;;5029096;28;20008;-56
2023/07/26 09:17:01;;;;;;;3.95;1.30;;;16.70;99.90;;;;;;5033372;28;20399;-48
2023/07/26 09:19:34;;;;;;;1.42;0.70;;;16.80;99.90;;;;;;5030749;28;20448;-50
2023/07/26 09:22:03;;;;;;;1.70;0.80;;;17.00;99.90;;;;;;5032423;28;20049;-55
2023/07/26 09:24:34;;;;;;;0.90;0.70;;;17.00;99.90;;;;;;5032081;28;20038;-51
2023/07/26 09:27:12;;;;;;;1.30;0.93;;;17.20;99.90;;;;;;5029348;28;20101;-54
2023/07/26 09:29:40;;;;;;;2.22;1.63;;;17.20;99.90;;;;;;5031864;28;20041;-55
2023/07/26 09:32:07;;;;;;;1.48;1.38;;;17.30;99.90;;;;;;5034836;28;20042;-55
2023/07/26 09:34:33;;;;;;;3.08;1.10;;;17.40;99.90;;;;;;5033684;28;20044;-54
2023/07/26 09:36:59;;;;;;;2.42;1.50;;;17.40;99.90;;;;;;5020098;28;20041;-50
2023/07/26 09:39:26;;;;;;;;;;;17.40;99.90;;;;;;5020722;28;20090;-54
2023/07/26 09:42:06;;;;;;;1.88;1.67;;;17.50;99.90;;;;;;5030774;28;20344;-51
2023/07/26 09:44:32;;;;;;;4.20;1.65;;;17.60;99.90;;;;;;5029757;28;20673;-52
2023/07/26 09:46:58;;;;;;;4.03;1.95;;;17.70;99.90;;;;;;5031234;28;20042;-52
2023/07/26 09:49:27;;;;;;;2.22;1.48;;;17.70;99.90;;;;;;5032839;28;20036;-56
2023/07/26 09:51:54;;;;;;;1.75;1.50;;;17.80;99.90;;;;;;5028239;28;20045;-56
2023/07/26 09:54:21;;;;;;;2.17;1.15;;;17.80;99.90;;;;;;5024891;28;20071;-51
2023/07/26 09:56:47;;;;;;;2.10;1.67;;;17.90;99.90;;;;;;5029328;28;20512;-54
2023/07/26 09:59:13;;;;;;;3.30;2.53;;;18.00;99.90;;;;;;5031174;28;20053;-54
2023/07/26 10:01:44;;;;;;;2.38;1.98;;;18.10;99.90;;;;;;5032696;28;20037;-56
2023/07/26 10:04:29;;;;;;;2.53;2.03;;;18.20;99.90;;;;;;5025277;28;20068;-51
2023/07/26 10:06:57;;;;;;;3.97;2.17;;;18.40;99.90;;;;;;5023525;28;20045;-52
2023/07/26 10:09:24;;;;;;;3.53;2.20;;;18.60;99.90;;;;;;5026354;28;20383;-54
2023/07/26 10:11:51;;;;;;;2.75;1.83;;;18.70;99.90;;;;;;5026156;28;20045;-53
2023/07/26 10:14:19;;;;;;;4.63;2.00;;;18.70;99.90;;;;;;5025565;28;20073;-57
2023/07/26 10:16:46;;;;;;;4.13;2.45;;;18.70;99.90;;;;;;5025205;28;20392;-53
2023/07/26 10:19:13;;;;;;;2.40;1.70;;;18.80;99.90;;;;;;5025545;28;20040;-53
2023/07/26 10:21:40;;;;;;;7.13;2.58;;;18.80;99.90;;;;;;5026975;28;20128;-52
2023/07/26 10:24:07;;;;;;;2.63;2.10;;;18.90;99.90;;;;;;5025173;28;20095;-54
2023/07/26 10:26:35;;;;;;;3.15;2.33;;;18.90;99.90;;;;;;5025528;28;20645;-53
2023/07/26 10:29:02;;;;;;;2.70;2.22;;;18.90;99.90;;;;;;5026703;28;20099;-53
2023/07/26 10:31:29;;;;;;;2.10;1.75;;;18.90;99.90;;;;;;5026934;28;20057;-51
2023/07/26 10:33:55;;;;;;;2.60;2.00;;;18.90;99.90;;;;;;5026337;28;20037;-53
2023/07/26 10:36:26;;;;;;;4.25;1.45;;;19.00;99.90;;;;;;5025996;28;20042;-54
2023/07/26 10:38:52;;;;;;;2.58;2.03;;;19.10;99.90;;;;;;5024155;28;20041;-51
2023/07/26 10:41:28;;;;;;;3.47;2.53;;;19.10;99.90;;;;;;5026480;28;20037;-53
2023/07/26 10:44:07;;;;;;;3.00;2.25;;;19.10;99.90;;;;;;5025836;28;20033;-53
2023/07/26 10:47:00;;;;;;;4.30;2.83;;;19.10;99.90;;;;;;5025141;28;20045;-56
2023/07/26 10:49:28;;;;;;;2.22;2.03;;;19.20;99.90;;;;;;5026031;28;20117;-54
2023/07/26 10:52:00;;;;;;;2.20;1.60;;;19.30;99.90;;;;;;5023535;28;20033;-54
2023/07/26 10:54:44;;;;;;;2.17;1.73;;;19.50;99.90;;;;;;5021724;28;20045;-56
2023/07/26 10:57:14;;;;;;;3.22;2.50;;;19.70;99.90;;;;;;5023685;28;20037;-53
2023/07/26 10:59:59;;;;;;;3.15;1.67;;;19.80;99.90;;;;;;5025872;28;20041;-51
2023/07/26 11:02:48;;;;;;;2.25;1.65;;;19.90;99.90;;;;;;5024800;28;20170;-53
2023/07/26 11:05:17;;;;;;;3.72;2.38;;;20.00;99.90;;;;;;5025141;28;20479;-55
2023/07/26 11:07:54;;;;;;;5.85;2.05;;;20.10;99.90;;;;;;5024536;28;20491;-52
2023/07/26 11:10:22;;;;;;;2.58;1.38;;;20.10;99.90;;;;;;5022259;28;20037;-53
2023/07/26 11:12:50;;;;;;;3.45;1.60;;;20.10;99.90;;;;;;5025524;28;20048;-54
2023/07/26 11:15:27;;;;;;;1.90;1.67;;;20.10;99.90;;;;;;5017767;28;20030;-52
2023/07/26 11:17:53;;;;;;;1.60;1.50;;;20.20;99.90;;;;;;5024058;28;20098;-52
2023/07/26 11:20:19;;;;;;;3.50;2.25;;;20.30;99.90;;;;;;5029736;28;20044;-52
2023/07/26 11:22:44;;;;;;;6.47;2.28;;;20.30;99.90;;;;;;5028050;28;20354;-52
2023/07/26 11:25:11;;;;;;;;;;;20.30;99.90;;;;;;5028634;28;20301;-52
2023/07/26 11:27:37;;;;;;;2.42;2.15;;;20.20;99.90;;;;;;5027496;28;19925;-55
2023/07/26 11:30:03;;;;;;;2.40;1.88;;;20.20;99.90;;;;;;5024617;28;20107;-52
2023/07/26 11:32:29;;;;;;;;;;;20.30;99.90;;;;;;5028323;28;20044;-54
2023/07/26 11:34:56;;;;;;;1.63;1.30;;;20.30;99.90;;;;;;5026118;28;19921;-51
2023/07/26 11:37:21;;;;;;;4.43;1.85;;;20.10;99.90;;;;;;5026418;28;20045;-53
2023/07/26 11:39:47;;;;;;;5.28;2.22;;;19.90;99.90;;;;;;5027745;28;20380;-51
2023/07/26 11:42:16;;;;;;;;;;;19.70;99.90;;;;;;5033000;28;20447;-50
2023/07/26 11:44:42;;;;;;;5.07;2.60;;;19.50;99.90;;;;;;5027706;28;20319;-53
2023/07/26 11:47:07;;;;;;;4.53;2.20;;;19.20;99.90;;;;;;5027483;28;20030;-50
2023/07/26 11:49:34;;;;;;;;;;;18.90;99.90;;;;;;5027630;28;20063;-54
2023/07/26 11:51:59;;;;;;;1.33;0.93;;;18.60;99.90;;;;;;5028245;28;19953;-49
2023/07/26 11:54:25;;;;;;;1.85;0.60;;;18.20;99.90;;;;;;5026464;28;21025;-50
2023/07/26 11:56:51;;;;;;;;;;;17.80;99.90;;;;;;5025574;28;20060;-52
2023/07/26 11:59:17;;;;;;;1.85;0.30;;;17.60;99.90;;;;;;5026243;28;20436;-56
2023/07/26 12:01:42;;;;;;;1.85;0.30;;;17.40;99.90;;;;;;5027736;28;20123;-56
2023/07/26 12:04:16;;;;;;;0.28;0.10;;;17.40;99.90;;;;;;5024927;28;20043;-50
2023/07/26 12:06:44;;;;;;;0.50;0.30;;;17.40;99.90;;;;;;5027962;28;20513;-50
2023/07/26 12:09:11;;;;;;;1.17;0.43;;;17.60;99.90;;;;;;5026842;28;20441;-54
2023/07/26 12:11:55;;;;;;;1.00;0.50;;;17.80;99.90;;;;;;5024688;28;20041;-54
2023/07/26 12:14:21;;;;;;;0.75;0.40;;;18.00;99.90;;;;;;5024478;28;20507;-55
2023/07/26 12:16:51;;;;;;;1.45;0.50;;;18.20;99.90;;;;;;5027435;28;20047;-51
2023/07/26 12:19:24;;;;;;;2.22;0.60;;;18.40;99.90;;;;;;5026003;28;20037;-52
2023/07/26 12:21:50;;;;;;;0.98;0.50;;;18.60;99.90;;;;;;5029076;28;20053;-55
2023/07/26 12:24:16;;;;;;;1.98;0.80;;;18.70;99.90;;;;;;5027131;28;20459;-53
2023/07/26 12:26:45;;;;;;;;;;;18.90;99.90;;;;;;5030390;28;20040;-52
2023/07/26 12:29:11;;;;;;;0.88;0.40;;;19.00;99.90;;;;;;5029172;28;19943;-54
2023/07/26 12:31:38;;;;;;;1.27;0.40;;;19.20;99.90;;;;;;5024057;28;20087;-51
2023/07/26 12:34:08;;;;;;;1.42;0.52;;;19.30;99.90;;;;;;5028387;28;20041;-55
2023/07/26 12:36:37;;;;;;;4.40;0.85;;;19.40;99.90;;;;;;5025978;28;20490;-53
2023/07/26 12:39:07;;;;;;;2.25;0.93;;;19.50;99.90;;;;;;5026218;28;20042;-54
2023/07/26 12:41:38;;;;;;;2.40;1.23;;;19.70;99.90;;;;;;5027613;28;20502;-52
2023/07/26 12:44:07;;;;;;;2.63;1.00;;;19.80;99.90;;;;;;5009261;28;20136;-53
2023/07/26 12:46:37;;;;;;;4.40;1.10;;;19.90;99.90;;;;;;5023593;28;20220;-55
2023/07/26 12:49:04;;;;;;;1.95;1.10;;;19.90;99.90;;;;;;5020479;28;20037;-55